createdAt,value
2018-12-24T00:01:37.814Z,3.70
2018-12-24T00:04:07.117Z,3.70
2018-12-24T00:06:36.404Z,3.60
2018-12-24T00:09:07.051Z,3.70
2018-12-24T00:11:36.324Z,3.70
2018-12-24T00:14:05.588Z,3.70
2018-12-24T00:16:35.316Z,3.70
2018-12-24T00:19:04.591Z,3.70
2018-12-24T00:21:33.888Z,3.80
2018-12-24T00:24:03.144Z,3.80
2018-12-24T00:26:32.412Z,3.80
2018-12-24T00:29:01.960Z,3.70
2018-12-24T00:31:31.211Z,3.60
2018-12-24T00:34:00.576Z,3.60
2018-12-24T00:36:29.848Z,3.60
2018-12-24T00:38:59.104Z,3.70
2018-12-24T00:41:28.491Z,3.70
2018-12-24T00:43:57.708Z,3.60
2018-12-24T00:46:26.960Z,3.60
2018-12-24T00:48:56.237Z,3.50
2018-12-24T00:51:25.490Z,3.50
2018-12-24T00:53:54.776Z,3.50
2018-12-24T00:56:24.016Z,3.50
2018-12-24T00:58:53.300Z,3.50
2018-12-24T01:01:22.639Z,3.50
2018-12-24T01:03:51.959Z,3.50
2018-12-24T01:06:21.221Z,3.50
2018-12-24T01:08:50.444Z,3.50
2018-12-24T01:11:19.720Z,3.50
2018-12-24T01:13:49.056Z,3.40
2018-12-24T01:16:18.383Z,3.40
2018-12-24T01:18:47.639Z,3.40
2018-12-24T01:21:17.965Z,3.40
2018-12-24T01:23:47.284Z,3.40
2018-12-24T01:26:16.591Z,3.40
2018-12-24T01:28:45.851Z,3.50
2018-12-24T01:31:15.124Z,3.50
2018-12-24T01:33:44.356Z,3.50
2018-12-24T01:36:13.615Z,3.50
2018-12-24T01:38:42.856Z,3.50
2018-12-24T01:41:12.127Z,3.50
2018-12-24T01:43:41.399Z,3.50
2018-12-24T01:46:10.663Z,3.50
2018-12-24T01:48:39.934Z,3.40
2018-12-24T01:51:09.714Z,3.50
2018-12-24T01:53:38.959Z,3.40
2018-12-24T01:56:08.282Z,3.40
2018-12-24T01:58:37.550Z,3.40
2018-12-24T02:01:06.834Z,3.40
2018-12-24T02:03:36.082Z,3.40
2018-12-24T02:06:05.367Z,3.30
2018-12-24T02:08:34.914Z,3.30
2018-12-24T02:11:04.159Z,3.20
2018-12-24T02:13:33.422Z,3.20
2018-12-24T02:16:02.711Z,3.20
2018-12-24T02:18:32.022Z,3.20
2018-12-24T02:21:01.298Z,3.20
2018-12-24T02:23:30.598Z,3.10
2018-12-24T02:25:59.855Z,3.10
2018-12-24T02:28:29.129Z,3.20
2018-12-24T02:30:58.369Z,3.20
2018-12-24T02:33:27.886Z,3.20
2018-12-24T02:35:57.126Z,3.20
2018-12-24T02:38:26.394Z,3.20
2018-12-24T02:40:55.623Z,3.20
2018-12-24T02:43:24.886Z,3.20
2018-12-24T02:45:54.129Z,3.20
2018-12-24T02:48:23.396Z,3.20
2018-12-24T02:50:52.621Z,3.10
2018-12-24T02:53:21.907Z,3.00
2018-12-24T02:55:51.156Z,3.00
2018-12-24T02:58:20.413Z,3.00
2018-12-24T03:00:49.673Z,3.00
2018-12-24T03:03:18.898Z,3.00
2018-12-24T03:05:48.178Z,3.10
2018-12-24T03:08:17.418Z,3.00
2018-12-24T03:10:46.730Z,3.00
2018-12-24T03:13:15.969Z,3.10
2018-12-24T03:15:45.226Z,3.00
2018-12-24T03:18:14.499Z,3.00
2018-12-24T03:20:43.807Z,3.00
2018-12-24T03:23:13.050Z,3.00
2018-12-24T03:25:42.342Z,3.10
2018-12-24T03:28:11.616Z,3.00
2018-12-24T03:30:41.003Z,3.00
2018-12-24T03:33:10.263Z,2.90
2018-12-24T03:35:39.822Z,2.90
2018-12-24T03:38:09.113Z,2.80
2018-12-24T03:40:38.465Z,2.90
2018-12-24T03:43:12.392Z,2.90
2018-12-24T03:45:38.650Z,2.90
2018-12-24T03:48:07.922Z,2.90
2018-12-24T03:50:37.195Z,2.80
2018-12-24T03:53:06.413Z,2.80
2018-12-24T03:55:35.693Z,2.80
2018-12-24T03:58:04.975Z,2.90
2018-12-24T04:00:34.265Z,2.80
2018-12-24T04:03:03.490Z,2.80
2018-12-24T04:05:32.750Z,2.80
2018-12-24T04:08:02.108Z,2.80
2018-12-24T04:10:31.353Z,2.70
2018-12-24T04:13:00.688Z,2.70
2018-12-24T04:15:30.054Z,2.70
2018-12-24T04:17:59.325Z,2.70
2018-12-24T04:20:28.664Z,2.70
2018-12-24T04:22:57.976Z,2.60
2018-12-24T04:25:27.200Z,2.70
2018-12-24T04:27:56.476Z,2.70
2018-12-24T04:30:25.734Z,2.70
2018-12-24T04:32:55.303Z,2.70
2018-12-24T04:35:24.650Z,2.70
2018-12-24T04:37:54.144Z,2.80
2018-12-24T04:40:23.416Z,2.80
2018-12-24T04:42:54.421Z,2.80
2018-12-24T04:45:23.676Z,2.80
2018-12-24T04:47:52.926Z,2.70
2018-12-24T04:50:22.204Z,2.70
2018-12-24T04:52:51.516Z,2.60
2018-12-24T04:55:20.860Z,2.60
2018-12-24T04:57:50.199Z,2.60
2018-12-24T05:00:19.452Z,2.60
2018-12-24T05:02:48.740Z,2.70
2018-12-24T05:05:18.348Z,2.70
2018-12-24T05:07:47.631Z,2.70
2018-12-24T05:10:16.959Z,2.60
2018-12-24T05:12:46.324Z,2.60
2018-12-24T05:15:15.667Z,2.60
2018-12-24T05:17:45.045Z,2.50
2018-12-24T05:20:14.384Z,2.50
2018-12-24T05:22:43.648Z,2.60
2018-12-24T05:25:12.927Z,2.50
2018-12-24T05:27:42.567Z,2.60
2018-12-24T05:30:11.847Z,2.60
2018-12-24T05:32:41.071Z,2.60
2018-12-24T05:35:10.343Z,2.60
2018-12-24T05:37:39.699Z,2.60
2018-12-24T05:40:08.935Z,2.60
2018-12-24T05:42:38.211Z,2.60
2018-12-24T05:45:07.459Z,2.60
2018-12-24T05:47:36.756Z,2.60
2018-12-24T05:50:06.007Z,2.50
2018-12-24T05:52:35.323Z,2.50
2018-12-24T05:55:04.555Z,2.50
2018-12-24T05:57:33.915Z,2.50
2018-12-24T06:00:03.240Z,2.50
2018-12-24T06:02:32.527Z,2.50
2018-12-24T06:05:01.748Z,2.50
2018-12-24T06:07:30.991Z,2.50
2018-12-24T06:10:00.392Z,2.30
2018-12-24T06:12:29.618Z,2.30
2018-12-24T06:14:58.878Z,2.30
2018-12-24T06:17:28.402Z,2.30
2018-12-24T06:19:57.675Z,2.30
2018-12-24T06:22:26.959Z,2.30
2018-12-24T06:24:56.247Z,2.40
2018-12-24T06:27:25.615Z,2.40
2018-12-24T06:29:54.875Z,2.50
2018-12-24T06:32:24.108Z,2.40
2018-12-24T06:34:53.403Z,2.40
2018-12-24T06:37:22.652Z,2.40
2018-12-24T06:39:51.911Z,2.40
2018-12-24T06:42:21.187Z,2.40
2018-12-24T06:44:50.443Z,2.40
2018-12-24T06:47:19.639Z,2.40
2018-12-24T06:49:48.855Z,2.40
2018-12-24T06:52:18.106Z,2.40
2018-12-24T06:54:47.399Z,2.30
2018-12-24T06:57:16.635Z,2.20
2018-12-24T06:59:45.875Z,2.20
2018-12-24T07:02:15.138Z,2.20
2018-12-24T07:04:44.434Z,2.30
2018-12-24T07:07:13.730Z,2.40
2018-12-24T07:09:43.004Z,2.40
2018-12-24T07:12:12.378Z,2.30
2018-12-24T07:14:41.610Z,2.20
2018-12-24T07:17:10.922Z,2.20
2018-12-24T07:19:40.414Z,2.20
2018-12-24T07:22:09.750Z,2.10
2018-12-24T07:24:38.985Z,2.00
2018-12-24T07:27:08.274Z,2.00
2018-12-24T07:29:37.510Z,1.90
2018-12-24T07:32:06.770Z,1.90
2018-12-24T07:34:36.038Z,1.80
2018-12-24T07:37:05.270Z,1.70
2018-12-24T07:39:34.886Z,1.80
2018-12-24T07:42:04.124Z,1.80
2018-12-24T07:44:33.389Z,1.80
2018-12-24T07:47:02.574Z,1.80
2018-12-24T07:49:31.845Z,1.90
2018-12-24T07:52:01.095Z,1.90
2018-12-24T07:54:30.445Z,2.00
2018-12-24T07:56:59.721Z,2.00
2018-12-24T07:59:28.997Z,2.00
2018-12-24T08:01:58.233Z,1.90
2018-12-24T08:04:28.859Z,1.90
2018-12-24T08:06:58.257Z,1.90
2018-12-24T08:09:27.755Z,2.00
2018-12-24T08:11:57.325Z,2.00
2018-12-24T08:14:32.905Z,2.10
2018-12-24T08:16:57.525Z,2.10
2018-12-24T08:19:26.791Z,2.10
2018-12-24T08:21:56.477Z,2.10
2018-12-24T08:24:25.780Z,2.10
2018-12-24T08:26:55.066Z,2.10
2018-12-24T08:29:24.361Z,2.00
2018-12-24T08:31:53.656Z,2.00
2018-12-24T08:34:23.313Z,2.10
2018-12-24T08:36:52.665Z,2.10
2018-12-24T08:39:21.848Z,2.00
2018-12-24T08:41:51.125Z,2.00
2018-12-24T08:44:20.416Z,2.10
2018-12-24T08:46:49.676Z,2.10
2018-12-24T08:49:18.952Z,2.10
2018-12-24T08:51:48.216Z,1.90
2018-12-24T08:54:17.776Z,2.00
2018-12-24T08:56:47.056Z,2.10
2018-12-24T08:59:16.332Z,2.10
2018-12-24T09:01:45.580Z,2.20
2018-12-24T09:04:14.864Z,2.20
2018-12-24T09:06:44.106Z,2.20
2018-12-24T09:09:13.380Z,2.10
2018-12-24T09:11:42.628Z,2.20
2018-12-24T09:14:11.984Z,2.10
2018-12-24T09:16:41.216Z,2.10
2018-12-24T09:19:10.520Z,2.00
2018-12-24T09:21:39.828Z,2.00
2018-12-24T09:24:09.240Z,2.00
2018-12-24T09:26:38.512Z,2.00
2018-12-24T09:29:07.784Z,2.00
2018-12-24T09:31:37.064Z,2.00
2018-12-24T09:34:06.344Z,1.90
2018-12-24T09:36:35.586Z,2.00
2018-12-24T09:39:07.248Z,2.00
2018-12-24T09:41:36.504Z,2.00
2018-12-24T09:44:05.740Z,1.90
2018-12-24T09:46:35.008Z,2.00
2018-12-24T09:49:04.360Z,2.00
2018-12-24T09:51:33.630Z,2.10
2018-12-24T09:54:02.904Z,2.10
2018-12-24T09:56:32.184Z,2.10
2018-12-24T09:59:01.416Z,2.20
2018-12-24T10:01:30.684Z,2.30
2018-12-24T10:04:05.188Z,2.30
2018-12-24T10:06:37.643Z,2.40
2018-12-24T10:09:12.175Z,2.50
2018-12-24T10:11:41.632Z,2.60
2018-12-24T10:14:10.864Z,2.70
2018-12-24T10:16:40.144Z,2.70
2018-12-24T10:19:10.247Z,2.60
2018-12-24T10:21:39.528Z,2.60
2018-12-24T10:24:08.855Z,2.50
2018-12-24T10:26:38.137Z,2.50
2018-12-24T10:29:07.399Z,2.50
2018-12-24T10:31:36.824Z,2.50
2018-12-24T10:34:06.124Z,2.50
2018-12-24T10:36:35.500Z,2.50
2018-12-24T10:39:07.092Z,2.50
2018-12-24T10:41:36.379Z,2.50
2018-12-24T10:44:05.674Z,2.40
2018-12-24T10:46:34.990Z,2.30
2018-12-24T10:49:04.245Z,2.40
2018-12-24T10:51:33.599Z,2.80
2018-12-24T10:54:02.851Z,3.30
2018-12-24T10:56:32.118Z,3.60
2018-12-24T10:59:01.355Z,3.70
2018-12-24T11:01:30.643Z,3.60
2018-12-24T11:03:59.899Z,3.30
2018-12-24T11:06:29.495Z,3.20
2018-12-24T11:08:58.739Z,3.10
2018-12-24T11:11:29.172Z,3.20
2018-12-24T11:13:58.439Z,3.40
2018-12-24T11:16:27.719Z,3.50
2018-12-24T11:18:56.942Z,3.30
2018-12-24T11:21:26.206Z,3.10
2018-12-24T11:23:55.526Z,3.00
2018-12-24T11:26:24.766Z,3.20
2018-12-24T11:28:54.050Z,3.30
2018-12-24T11:31:23.320Z,3.30
2018-12-24T11:33:52.638Z,3.20
2018-12-24T11:36:21.902Z,3.10
2018-12-24T11:38:51.283Z,3.30
2018-12-24T11:41:20.546Z,3.50
2018-12-24T11:43:49.846Z,3.60
2018-12-24T11:46:19.081Z,3.70
2018-12-24T11:48:48.354Z,3.70
2018-12-24T11:51:17.610Z,3.70
2018-12-24T11:53:46.851Z,3.70
2018-12-24T11:56:16.118Z,3.70
2018-12-24T11:58:45.426Z,3.80
2018-12-24T12:01:14.710Z,3.80
2018-12-24T12:03:43.974Z,3.70
2018-12-24T12:06:19.643Z,3.60
2018-12-24T12:08:44.090Z,3.60
2018-12-24T12:11:13.354Z,3.70
2018-12-24T12:13:42.577Z,3.80
2018-12-24T12:16:11.886Z,3.60
2018-12-24T12:18:41.113Z,3.50
2018-12-24T12:21:10.613Z,3.50
2018-12-24T12:23:39.893Z,3.50
2018-12-24T12:26:09.169Z,3.60
2018-12-24T12:28:38.443Z,3.40
2018-12-24T12:31:07.738Z,3.20
2018-12-24T12:33:37.037Z,3.00
2018-12-24T12:36:06.336Z,2.90
2018-12-24T12:38:35.645Z,2.80
2018-12-24T12:41:04.922Z,2.70
2018-12-24T12:43:34.205Z,2.60
2018-12-24T12:46:03.429Z,2.60
2018-12-24T12:48:32.920Z,2.60
2018-12-24T12:51:02.200Z,2.60
2018-12-24T12:53:31.448Z,2.50
2018-12-24T12:56:00.681Z,2.50
2018-12-24T12:58:29.950Z,2.60
2018-12-24T13:00:59.228Z,2.60
2018-12-24T13:03:28.465Z,2.60
2018-12-24T13:05:57.748Z,2.60
2018-12-24T13:08:27.012Z,2.50
2018-12-24T13:10:56.336Z,2.40
2018-12-24T13:13:25.580Z,2.40
2018-12-24T13:15:59.552Z,2.40
2018-12-24T13:18:25.776Z,2.40
2018-12-24T13:20:55.012Z,2.40
2018-12-24T13:23:24.320Z,2.40
2018-12-24T13:25:53.604Z,2.40
2018-12-24T13:28:22.884Z,2.40
2018-12-24T13:30:52.120Z,2.40
2018-12-24T13:33:21.405Z,2.40
2018-12-24T13:35:50.724Z,2.40
2018-12-24T13:38:20.000Z,2.40
2018-12-24T13:40:49.298Z,2.40
2018-12-24T13:43:18.632Z,2.30
2018-12-24T13:45:47.915Z,2.20
2018-12-24T13:48:17.212Z,2.30
2018-12-24T13:50:46.484Z,2.20
2018-12-24T13:53:15.751Z,2.20
2018-12-24T13:55:45.040Z,2.20
2018-12-24T13:58:14.270Z,2.20
2018-12-24T14:00:43.543Z,2.20
2018-12-24T14:03:12.772Z,2.20
2018-12-24T14:05:42.008Z,2.30
2018-12-24T14:08:11.290Z,2.20
2018-12-24T14:10:40.568Z,2.20
2018-12-24T14:13:09.843Z,2.10
2018-12-24T14:15:39.083Z,2.10
2018-12-24T14:18:08.367Z,2.20
2018-12-24T14:20:37.595Z,2.20
2018-12-24T14:23:06.873Z,2.10
2018-12-24T14:25:38.341Z,2.20
2018-12-24T14:28:07.154Z,2.20
2018-12-24T14:30:36.427Z,2.10
2018-12-24T14:33:05.703Z,2.10
2018-12-24T14:35:35.199Z,2.10
2018-12-24T14:38:04.495Z,2.10
2018-12-24T14:40:33.735Z,2.10
2018-12-24T14:43:03.375Z,2.10
2018-12-24T14:45:32.615Z,2.10
2018-12-24T14:48:01.895Z,2.10
2018-12-24T14:50:31.129Z,2.00
2018-12-24T14:53:00.396Z,2.00
2018-12-24T14:55:29.987Z,2.10
2018-12-24T14:57:59.263Z,2.10
2018-12-24T15:00:28.492Z,2.00
2018-12-24T15:02:57.749Z,2.00
2018-12-24T15:05:27.795Z,2.00
2018-12-24T15:07:57.040Z,2.00
2018-12-24T15:10:26.300Z,2.00
2018-12-24T15:12:55.549Z,2.00
2018-12-24T15:15:24.902Z,2.00
2018-12-24T15:17:54.139Z,2.10
2018-12-24T15:20:23.415Z,2.10
2018-12-24T15:22:52.726Z,2.10
2018-12-24T15:25:21.966Z,2.10
2018-12-24T15:27:51.442Z,2.00
2018-12-24T15:30:20.674Z,2.00
2018-12-24T15:32:49.976Z,2.00
2018-12-24T15:35:19.166Z,2.00
2018-12-24T15:37:48.428Z,2.00
2018-12-24T15:40:19.502Z,2.00
2018-12-24T15:42:48.818Z,2.00
2018-12-24T15:45:18.119Z,2.00
2018-12-24T15:47:47.347Z,2.10
2018-12-24T15:50:16.575Z,2.00
2018-12-24T15:52:45.843Z,2.00
2018-12-24T15:55:15.150Z,2.00
2018-12-24T15:57:44.416Z,2.00
2018-12-24T16:00:13.678Z,2.00
2018-12-24T16:02:42.937Z,1.90
2018-12-24T16:05:12.257Z,2.00
2018-12-24T16:07:41.862Z,2.00
2018-12-24T16:10:11.239Z,1.90
2018-12-24T16:12:40.466Z,1.80
2018-12-24T16:15:09.806Z,1.80
2018-12-24T16:17:39.041Z,1.80
2018-12-24T16:20:08.322Z,1.90
2018-12-24T16:22:37.590Z,1.90
2018-12-24T16:25:06.873Z,1.90
2018-12-24T16:27:36.217Z,1.90
2018-12-24T16:30:06.509Z,1.90
2018-12-24T16:32:35.734Z,1.90
2018-12-24T16:35:05.137Z,1.90
2018-12-24T16:37:34.364Z,1.90
2018-12-24T16:40:03.647Z,1.90
2018-12-24T16:42:32.909Z,2.00
2018-12-24T16:45:03.361Z,1.90
2018-12-24T16:47:32.709Z,1.90
2018-12-24T16:50:01.986Z,2.00
2018-12-24T16:52:31.218Z,1.90
2018-12-24T16:55:00.481Z,1.90
2018-12-24T16:57:30.552Z,1.90
2018-12-24T16:59:59.780Z,1.90
2018-12-24T17:02:29.056Z,1.90
2018-12-24T17:04:59.260Z,1.90
2018-12-24T17:07:28.517Z,1.90
2018-12-24T17:09:57.756Z,1.90
2018-12-24T17:12:27.036Z,1.90
2018-12-24T17:14:56.268Z,1.90
2018-12-24T17:17:25.597Z,1.80
2018-12-24T17:19:54.876Z,1.80
2018-12-24T17:22:24.136Z,1.70
2018-12-24T17:24:53.412Z,1.70
2018-12-24T17:27:22.792Z,1.60
2018-12-24T17:29:52.092Z,1.70
2018-12-24T17:32:21.318Z,1.70
2018-12-24T17:34:50.592Z,1.70
2018-12-24T17:37:19.816Z,1.70
2018-12-24T17:39:51.029Z,1.80
2018-12-24T17:42:19.960Z,1.80
2018-12-24T17:44:49.220Z,1.80
2018-12-24T17:47:18.476Z,1.80
2018-12-24T17:49:47.760Z,1.80
2018-12-24T17:52:17.088Z,1.80
2018-12-24T17:54:46.349Z,1.70
2018-12-24T17:57:15.575Z,1.70
2018-12-24T17:59:44.840Z,1.70
2018-12-24T18:02:14.155Z,1.60
2018-12-24T18:04:43.384Z,1.60
2018-12-24T18:07:12.656Z,1.60
2018-12-24T18:09:41.931Z,1.50
2018-12-24T18:12:11.221Z,1.50
2018-12-24T18:14:40.427Z,1.50
2018-12-24T18:17:09.691Z,1.60
2018-12-24T18:19:39.435Z,1.60
2018-12-24T18:22:08.651Z,1.70
2018-12-24T18:24:37.912Z,1.70
2018-12-24T18:27:07.219Z,1.70
2018-12-24T18:29:36.523Z,1.70
2018-12-24T18:32:05.793Z,1.70
2018-12-24T18:34:35.095Z,1.70
2018-12-24T18:37:04.329Z,1.70
2018-12-24T18:39:33.663Z,1.70
2018-12-24T18:42:02.883Z,1.70
2018-12-24T18:44:32.159Z,1.60
2018-12-24T18:47:01.502Z,1.70
2018-12-24T18:49:30.758Z,1.60
2018-12-24T18:51:59.990Z,1.60
2018-12-24T18:54:29.258Z,1.70
2018-12-24T18:56:58.541Z,1.70
2018-12-24T18:59:27.773Z,1.70
2018-12-24T19:01:57.049Z,1.70
2018-12-24T19:04:26.610Z,1.70
2018-12-24T19:06:55.865Z,1.70
2018-12-24T19:09:25.089Z,1.80
2018-12-24T19:11:54.354Z,1.80
2018-12-24T19:14:23.641Z,1.80
2018-12-24T19:16:52.905Z,1.70
2018-12-24T19:19:22.143Z,1.80
2018-12-24T19:21:51.429Z,1.80
2018-12-24T19:24:20.708Z,1.80
2018-12-24T19:26:50.033Z,1.80
2018-12-24T19:29:19.341Z,1.80
2018-12-24T19:31:48.673Z,1.80
2018-12-24T19:34:17.933Z,1.80
2018-12-24T19:36:47.208Z,1.80
2018-12-24T19:39:16.568Z,1.80
2018-12-24T19:41:45.837Z,1.80
2018-12-24T19:44:15.084Z,1.80
2018-12-24T19:46:44.396Z,1.80
2018-12-24T19:49:13.625Z,1.80
2018-12-24T19:51:42.877Z,1.80
2018-12-24T19:54:12.152Z,1.80
2018-12-24T19:56:41.384Z,1.90
2018-12-24T19:59:11.144Z,1.80
2018-12-24T20:01:40.381Z,1.80
2018-12-24T20:04:09.636Z,1.80
2018-12-24T20:06:38.949Z,1.80
2018-12-24T20:09:08.201Z,1.80
2018-12-24T20:11:37.433Z,1.80
2018-12-24T20:14:06.718Z,1.80
2018-12-24T20:16:36.841Z,1.80
2018-12-24T20:19:06.148Z,1.80
2018-12-24T20:21:35.368Z,1.80
2018-12-24T20:24:04.629Z,1.80
2018-12-24T20:26:33.908Z,1.80
2018-12-24T20:29:03.322Z,1.80
2018-12-24T20:31:32.522Z,1.80
2018-12-24T20:34:01.950Z,1.80
2018-12-24T20:36:31.197Z,1.80
2018-12-24T20:39:00.452Z,1.80
2018-12-24T20:41:29.669Z,1.80
2018-12-24T20:43:58.929Z,1.80
2018-12-24T20:46:28.162Z,1.80
2018-12-24T20:48:57.438Z,1.90
2018-12-24T20:51:26.677Z,1.80
2018-12-24T20:53:55.949Z,1.80
2018-12-24T20:56:25.213Z,1.80
2018-12-24T20:58:54.489Z,1.80
2018-12-24T21:01:23.753Z,1.90
2018-12-24T21:03:53.041Z,1.80
2018-12-24T21:06:22.305Z,1.80
2018-12-24T21:08:51.533Z,1.90
2018-12-24T21:11:20.789Z,1.90
2018-12-24T21:13:50.034Z,1.90
2018-12-24T21:16:19.320Z,1.90
2018-12-24T21:18:48.576Z,1.80
2018-12-24T21:21:17.803Z,1.90
2018-12-24T21:23:47.064Z,1.80
2018-12-24T21:26:16.328Z,1.80
2018-12-24T21:28:45.599Z,1.80
2018-12-24T21:31:14.884Z,1.80
2018-12-24T21:33:44.180Z,1.80
2018-12-24T21:36:13.459Z,1.80
2018-12-24T21:38:42.728Z,1.80
2018-12-24T21:41:12.004Z,1.90
2018-12-24T21:43:42.167Z,1.80
2018-12-24T21:46:11.419Z,1.80
2018-12-24T21:48:40.676Z,1.80
2018-12-24T21:51:09.952Z,1.80
2018-12-24T21:53:39.440Z,1.80
2018-12-24T21:56:08.691Z,1.80
2018-12-24T21:58:38.156Z,1.80
2018-12-24T22:01:07.420Z,1.80
2018-12-24T22:03:36.728Z,1.80
2018-12-24T22:06:06.100Z,1.70
2018-12-24T22:08:35.367Z,1.70
2018-12-24T22:11:04.611Z,1.70
2018-12-24T22:13:33.891Z,1.70
2018-12-24T22:16:03.163Z,1.70
2018-12-24T22:18:32.983Z,1.70
2018-12-24T22:21:02.208Z,1.70
2018-12-24T22:23:31.475Z,1.80
2018-12-24T22:26:02.540Z,1.80
2018-12-24T22:28:31.835Z,1.70
2018-12-24T22:31:01.131Z,1.80
2018-12-24T22:33:30.370Z,1.80
2018-12-24T22:35:59.627Z,1.80
2018-12-24T22:38:28.902Z,1.80
2018-12-24T22:40:58.121Z,1.80
2018-12-24T22:43:27.618Z,1.80
2018-12-24T22:45:56.892Z,1.90
2018-12-24T22:48:26.154Z,1.90
2018-12-24T22:50:55.422Z,1.80
2018-12-24T22:53:24.702Z,1.80
2018-12-24T22:55:53.922Z,1.90
2018-12-24T22:58:23.182Z,1.90
2018-12-24T23:00:52.674Z,1.90
2018-12-24T23:03:21.943Z,1.90
2018-12-24T23:05:51.182Z,1.80
2018-12-24T23:08:20.449Z,1.90
2018-12-24T23:10:49.750Z,1.80
2018-12-24T23:13:19.653Z,1.90
2018-12-24T23:15:48.962Z,1.80
2018-12-24T23:18:18.298Z,1.80
2018-12-24T23:20:47.546Z,1.90
2018-12-24T23:23:16.770Z,1.90
2018-12-24T23:25:46.005Z,1.90
2018-12-24T23:28:15.278Z,1.80
2018-12-24T23:30:44.569Z,1.80
2018-12-24T23:33:13.913Z,1.90
2018-12-24T23:35:43.314Z,1.90
2018-12-24T23:38:12.610Z,1.90
2018-12-24T23:40:41.839Z,1.90
2018-12-24T23:43:11.089Z,1.80
2018-12-24T23:45:40.362Z,1.90
2018-12-24T23:48:09.993Z,1.80
2018-12-24T23:50:39.278Z,1.80
2018-12-24T23:53:08.512Z,1.80
2018-12-24T23:55:37.737Z,1.80
2018-12-24T23:58:06.998Z,1.90
